Time;durP1;ratioP1;P1;durP2;ratioP2;P2;SDS_P1;SDS_P2;PMS_P1;PMS_P2;Temp;Humidity;BMP_temperature;BMP_pressure;BME280_temperature;BME280_humidity;BME280_pressure;Samples;Min_cycle;Max_cycle;Signal;HPM_P1;HPM_P2
2023/04/12 00:01:48;;;;;;;12.20;4.43;;;8.20;99.90;;;;;;4990707;28;20065;-91
2023/04/12 00:04:15;;;;;;;10.02;3.60;;;8.20;99.90;;;;;;4974816;28;20061;-93
2023/04/12 00:06:41;;;;;;;10.07;3.80;;;8.20;99.90;;;;;;4992245;28;20049;-92
2023/04/12 00:09:07;;;;;;;11.45;3.70;;;8.20;99.90;;;;;;5011735;28;20108;-93
2023/04/12 00:11:33;;;;;;;10.32;3.88;;;8.20;99.90;;;;;;5010200;28;20414;-93
2023/04/12 00:13:59;;;;;;;11.77;3.67;;;8.30;99.90;;;;;;5008036;28;20030;-93
2023/04/12 00:16:25;;;;;;;12.95;4.25;;;8.30;99.90;;;;;;5007850;28;20112;-93
2023/04/12 00:18:50;;;;;;;9.50;3.60;;;8.30;99.90;;;;;;5007442;28;20042;-93
2023/04/12 00:21:18;;;;;;;10.00;3.70;;;8.30;99.90;;;;;;5007150;28;20410;-93
2023/04/12 00:23:45;;;;;;;9.75;3.40;;;8.30;99.90;;;;;;5008127;28;20129;-94
2023/04/12 00:26:11;;;;;;;11.02;4.05;;;8.30;99.90;;;;;;5007085;28;20068;-92
2023/04/12 00:28:36;;;;;;;11.23;4.00;;;8.30;99.90;;;;;;5005012;28;20030;-92
2023/04/12 00:31:02;;;;;;;10.00;3.47;;;8.40;99.90;;;;;;5008710;28;20042;-92
2023/04/12 00:33:27;;;;;;;10.55;3.60;;;8.40;99.90;;;;;;5007235;28;20753;-91
2023/04/12 00:35:53;;;;;;;9.10;3.80;;;8.30;99.90;;;;;;5007431;28;20034;-91
2023/04/12 00:38:19;;;;;;;12.10;3.83;;;8.40;99.90;;;;;;5006936;28;20034;-92
2023/04/12 00:40:44;;;;;;;9.73;3.63;;;8.40;99.90;;;;;;5006421;28;20563;-92
2023/04/12 00:43:17;;;;;;;10.35;3.72;;;8.40;99.90;;;;;;5005912;28;20126;-92
2023/04/12 00:45:43;;;;;;;11.90;4.10;;;8.40;99.90;;;;;;5005322;28;20038;-91
2023/04/12 00:48:09;;;;;;;11.27;3.67;;;8.40;99.90;;;;;;5007141;28;20045;-91
2023/04/12 00:50:34;;;;;;;12.05;4.00;;;8.40;99.90;;;;;;5006586;28;20046;-91
2023/04/12 00:53:02;;;;;;;11.30;4.07;;;8.40;99.90;;;;;;5005989;28;20128;-91
2023/04/12 00:55:28;;;;;;;11.15;3.78;;;8.50;99.90;;;;;;5006395;28;20123;-92
2023/04/12 00:57:54;;;;;;;11.38;3.88;;;8.50;99.90;;;;;;5005592;28;20085;-91
2023/04/12 01:00:20;;;;;;;11.48;3.97;;;8.50;99.90;;;;;;5006160;28;20507;-92
2023/04/12 01:02:47;;;;;;;11.98;3.85;;;8.50;99.90;;;;;;5006137;28;20038;-92
2023/04/12 01:05:20;;;;;;;10.68;3.95;;;8.60;99.90;;;;;;5004295;28;20062;-91
2023/04/12 01:08:16;;;;;;;10.13;3.60;;;8.60;99.90;;;;;;4986707;28;20081;-91
2023/04/12 01:10:56;;;;;;;7.50;2.33;;;8.70;99.90;;;;;;4969840;28;20042;-91
2023/04/12 01:13:37;;;;;;;13.90;4.20;;;8.70;99.90;;;;;;4988585;28;20077;-92
2023/04/12 01:16:18;;;;;;;11.10;4.20;;;8.70;99.90;;;;;;4995436;28;20039;-91
2023/04/12 01:18:51;;;;;;;10.40;3.58;;;8.80;99.90;;;;;;4987224;28;20316;-91
2023/04/12 01:21:26;;;;;;;10.77;3.78;;;8.90;99.90;;;;;;4969137;28;20050;-93
2023/04/12 01:24:23;;;;;;;10.27;3.60;;;8.90;99.90;;;;;;4986254;28;20419;-91
2023/04/12 01:26:50;;;;;;;11.40;3.88;;;9.00;99.90;;;;;;4947249;28;20078;-90
2023/04/12 01:29:20;;;;;;;11.95;4.00;;;9.00;99.90;;;;;;4987152;28;20348;-91
2023/04/12 01:31:56;;;;;;;10.02;3.60;;;9.10;99.90;;;;;;4957700;28;20511;-92
2023/04/12 01:34:22;;;;;;;11.60;3.95;;;9.10;99.90;;;;;;4963408;28;20101;-92
2023/04/12 01:36:49;;;;;;;11.75;4.10;;;9.10;99.90;;;;;;4969099;28;20041;-92
2023/04/12 01:39:15;;;;;;;11.10;3.92;;;9.10;99.90;;;;;;4987048;28;20066;-92
2023/04/12 01:41:44;;;;;;;12.23;4.03;;;9.10;99.90;;;;;;4987271;28;20073;-92
2023/04/12 01:44:12;;;;;;;11.93;4.22;;;9.10;99.90;;;;;;4986593;28;20100;-91
2023/04/12 01:46:38;;;;;;;12.38;4.03;;;9.10;99.90;;;;;;4986142;28;20121;-91
2023/04/12 01:49:04;;;;;;;11.15;4.47;;;9.10;99.90;;;;;;4986997;28;20102;-91
2023/04/12 01:51:56;;;;;;;9.80;3.70;;;9.10;99.90;;;;;;4985483;28;20109;-92
2023/04/12 01:54:26;;;;;;;9.65;3.70;;;9.10;99.90;;;;;;4986866;28;20402;-91
2023/04/12 01:56:56;;;;;;;9.77;3.72;;;9.00;99.90;;;;;;4987536;28;20031;-92
2023/04/12 01:59:25;;;;;;;9.70;3.23;;;9.00;99.90;;;;;;4991059;28;20046;-90
2023/04/12 02:01:51;;;;;;;10.43;3.63;;;9.00;99.90;;;;;;4990559;28;20035;-91
2023/04/12 02:04:18;;;;;;;10.05;3.55;;;9.00;99.90;;;;;;4971928;28;20445;-92
2023/04/12 02:06:46;;;;;;;10.85;3.63;;;9.00;99.90;;;;;;4987285;28;20050;-89
2023/04/12 02:09:11;;;;;;;10.98;3.25;;;9.00;99.90;;;;;;4990777;28;20948;-93
2023/04/12 02:11:37;;;;;;;10.40;3.53;;;9.00;99.90;;;;;;4991148;28;20073;-91
2023/04/12 02:14:03;;;;;;;10.80;3.40;;;9.00;99.90;;;;;;4990960;28;20423;-91
2023/04/12 02:16:28;;;;;;;8.35;3.38;;;9.00;99.90;;;;;;4977085;28;20038;-93
2023/04/12 02:18:57;;;;;;;12.15;3.42;;;9.00;99.90;;;;;;4989409;28;20031;-91
2023/04/12 02:21:23;;;;;;;10.57;3.35;;;9.00;99.90;;;;;;4972128;28;20080;-92
2023/04/12 02:23:50;;;;;;;9.32;2.90;;;8.90;99.90;;;;;;4989650;28;20072;-92
2023/04/12 02:26:15;;;;;;;10.18;3.40;;;8.90;99.90;;;;;;4990893;28;20082;-89
2023/04/12 02:28:41;;;;;;;9.20;3.30;;;8.90;99.90;;;;;;4992870;28;20118;-90
2023/04/12 02:31:07;;;;;;;10.00;3.28;;;9.00;99.90;;;;;;4993683;28;20051;-92
2023/04/12 02:33:33;;;;;;;10.57;3.42;;;8.90;99.90;;;;;;4975978;28;20407;-92
2023/04/12 02:36:01;;;;;;;8.63;3.00;;;8.90;99.90;;;;;;4970625;28;20084;-91
2023/04/12 02:38:27;;;;;;;9.48;3.00;;;8.90;99.90;;;;;;4989093;28;20066;-91
2023/04/12 02:40:53;;;;;;;9.55;3.53;;;8.90;99.90;;;;;;4990081;28;20084;-89
2023/04/12 02:43:19;;;;;;;9.68;3.25;;;8.90;99.90;;;;;;4989955;28;20113;-90
2023/04/12 02:45:46;;;;;;;9.52;3.30;;;8.90;99.90;;;;;;4956928;28;20126;-90
2023/04/12 02:48:12;;;;;;;8.25;3.10;;;8.90;99.90;;;;;;4986347;28;20426;-92
2023/04/12 02:50:37;;;;;;;10.27;2.92;;;8.90;99.90;;;;;;4985511;28;20041;-89
2023/04/12 02:53:03;;;;;;;9.25;3.20;;;8.80;99.90;;;;;;4997510;28;20137;-90
2023/04/12 02:55:29;;;;;;;8.73;3.10;;;8.80;99.90;;;;;;5002352;28;20034;-91
2023/04/12 02:57:56;;;;;;;13.52;3.85;;;8.80;99.90;;;;;;4995104;28;20042;-89
2023/04/12 03:00:22;;;;;;;10.25;2.80;;;8.80;99.90;;;;;;4990591;28;20050;-89
2023/04/12 03:02:50;;;;;;;9.85;2.90;;;8.80;99.90;;;;;;4990540;28;20057;-92
2023/04/12 03:05:16;;;;;;;9.18;2.90;;;8.80;99.90;;;;;;4978489;28;20088;-92
2023/04/12 03:07:42;;;;;;;8.48;3.00;;;8.80;99.90;;;;;;4994164;28;20053;-90
2023/04/12 03:10:10;;;;;;;9.80;2.90;;;8.80;99.90;;;;;;4990591;28;20047;-91
2023/04/12 03:12:36;;;;;;;7.65;2.65;;;8.80;99.90;;;;;;4988647;28;20430;-89
2023/04/12 03:15:02;;;;;;;9.35;3.08;;;8.80;99.90;;;;;;4989310;28;20030;-91
2023/04/12 03:17:28;;;;;;;9.43;3.17;;;8.80;99.90;;;;;;4989113;28;20034;-91
2023/04/12 03:19:54;;;;;;;9.88;2.88;;;8.80;99.90;;;;;;4991760;28;20055;-92
2023/04/12 03:22:20;;;;;;;7.88;2.97;;;8.80;99.90;;;;;;4988825;28;20042;-91
2023/04/12 03:24:45;;;;;;;8.88;2.70;;;8.80;99.90;;;;;;4989553;28;20142;-91
2023/04/12 03:27:11;;;;;;;7.72;2.63;;;8.80;99.90;;;;;;4989536;28;20042;-91
2023/04/12 03:29:37;;;;;;;10.63;3.20;;;8.80;99.90;;;;;;4987858;28;20031;-90
2023/04/12 03:32:03;;;;;;;9.25;2.70;;;8.80;99.90;;;;;;4989196;28;20038;-91
2023/04/12 03:34:31;;;;;;;9.80;3.30;;;8.80;99.90;;;;;;4988826;28;20073;-91
2023/04/12 03:36:58;;;;;;;9.98;3.13;;;8.80;99.90;;;;;;4988277;28;20049;-92
2023/04/12 03:39:23;;;;;;;9.70;3.10;;;8.80;99.90;;;;;;4988087;28;20041;-91
2023/04/12 03:41:51;;;;;;;7.43;2.80;;;8.80;99.90;;;;;;4988842;28;20408;-94
2023/04/12 03:44:17;;;;;;;10.23;3.20;;;8.90;99.90;;;;;;4988892;28;20038;-91
2023/04/12 03:46:43;;;;;;;8.45;3.00;;;8.90;99.90;;;;;;4972122;28;20450;-92
2023/04/12 03:49:08;;;;;;;8.10;3.10;;;8.90;99.90;;;;;;4990137;28;20030;-92
2023/04/12 03:51:34;;;;;;;8.82;3.28;;;8.90;99.90;;;;;;4969769;28;20079;-91
2023/04/12 03:54:01;;;;;;;8.55;3.03;;;8.90;99.90;;;;;;4988845;28;20042;-90
2023/04/12 03:56:27;;;;;;;9.45;3.40;;;8.90;99.90;;;;;;4970952;28;20054;-92
2023/04/12 03:58:53;;;;;;;8.98;2.90;;;8.90;99.90;;;;;;4972281;28;20043;-91
2023/04/12 04:01:18;;;;;;;10.00;3.30;;;8.90;99.90;;;;;;4987235;28;20117;-91
2023/04/12 04:03:44;;;;;;;8.63;3.20;;;8.90;99.90;;;;;;4990363;28;20034;-91
2023/04/12 04:06:10;;;;;;;10.45;3.80;;;8.90;99.90;;;;;;4987199;28;20109;-91
2023/04/12 04:08:36;;;;;;;9.45;3.55;;;8.90;99.90;;;;;;4988217;28;20042;-93
2023/04/12 04:11:02;;;;;;;10.35;3.70;;;8.90;99.90;;;;;;4988671;28;20038;-91
2023/04/12 04:13:28;;;;;;;8.95;3.40;;;8.90;99.90;;;;;;4987593;28;20053;-92
2023/04/12 04:16:05;;;;;;;8.70;3.33;;;8.80;99.90;;;;;;4987780;28;20508;-91
2023/04/12 04:18:31;;;;;;;8.52;3.13;;;8.80;99.90;;;;;;4970955;28;20041;-90
2023/04/12 04:20:57;;;;;;;9.77;3.40;;;8.80;99.90;;;;;;4984276;28;20038;-92
2023/04/12 04:23:23;;;;;;;9.20;3.65;;;8.70;99.90;;;;;;4986872;28;20606;-91
2023/04/12 04:25:52;;;;;;;9.60;3.50;;;8.70;99.90;;;;;;4988289;28;20404;-91
2023/04/12 04:28:17;;;;;;;10.80;3.30;;;8.70;99.90;;;;;;4988449;28;20046;-90
2023/04/12 04:30:45;;;;;;;8.15;3.38;;;8.60;99.90;;;;;;4981938;28;20117;-91
2023/04/12 04:33:11;;;;;;;8.25;3.42;;;8.60;99.90;;;;;;4986912;28;20053;-92
2023/04/12 04:35:41;;;;;;;9.60;3.90;;;8.60;99.90;;;;;;4986333;28;20053;-92
2023/04/12 04:38:06;;;;;;;10.00;3.72;;;8.60;99.90;;;;;;4988328;28;20039;-92
2023/04/12 04:40:32;;;;;;;10.13;3.90;;;8.50;99.90;;;;;;4982083;28;20045;-92
2023/04/12 04:42:58;;;;;;;10.82;4.40;;;8.50;99.90;;;;;;4988184;28;20065;-92
2023/04/12 04:45:29;;;;;;;8.70;3.53;;;8.60;99.90;;;;;;4987408;28;20050;-95
2023/04/12 04:47:55;;;;;;;9.13;3.65;;;8.50;99.90;;;;;;4987575;28;20085;-92
2023/04/12 04:50:22;;;;;;;9.98;3.70;;;8.50;99.90;;;;;;4985567;28;20133;-92
2023/04/12 04:52:50;;;;;;;9.93;3.53;;;8.50;99.90;;;;;;4986378;28;20046;-92
2023/04/12 04:55:16;;;;;;;10.10;3.72;;;8.50;99.90;;;;;;4993887;28;20049;-91
2023/04/12 04:57:42;;;;;;;8.32;3.90;;;8.50;99.90;;;;;;4999444;28;20042;-92
2023/04/12 05:00:15;;;;;;;10.18;3.80;;;8.50;99.90;;;;;;4989079;28;20042;-93
2023/04/12 05:02:42;;;;;;;9.48;4.10;;;8.50;99.90;;;;;;4984687;28;20046;-93
2023/04/12 05:05:32;;;;;;;9.63;4.00;;;8.40;99.90;;;;;;4982952;28;20050;-94
2023/04/12 05:07:57;;;;;;;10.82;4.20;;;8.40;99.90;;;;;;4984652;28;20399;-93
2023/04/12 05:10:23;;;;;;;11.23;4.53;;;8.40;99.90;;;;;;4970159;28;20074;-94
2023/04/12 05:12:49;;;;;;;9.90;3.95;;;8.40;99.90;;;;;;4986769;28;20401;-94
2023/04/12 05:15:15;;;;;;;10.73;4.70;;;8.40;99.90;;;;;;4970292;28;20048;-92
2023/04/12 05:17:40;;;;;;;8.23;4.07;;;8.30;99.90;;;;;;4970875;28;20058;-92
2023/04/12 05:20:06;;;;;;;9.63;3.95;;;8.30;99.90;;;;;;4987446;28;20030;-92
2023/04/12 05:22:32;;;;;;;9.93;4.13;;;8.30;99.90;;;;;;4986114;28;20030;-93
2023/04/12 05:24:58;;;;;;;9.00;4.63;;;8.30;99.90;;;;;;4988771;28;20042;-91
2023/04/12 05:27:26;;;;;;;9.63;4.38;;;8.30;99.90;;;;;;4954598;28;20443;-87
2023/04/12 05:29:52;;;;;;;8.30;3.70;;;8.30;99.90;;;;;;4970896;28;20039;-91
2023/04/12 05:32:18;;;;;;;8.18;3.88;;;8.30;99.90;;;;;;4991554;28;20134;-92
2023/04/12 05:34:43;;;;;;;9.32;4.15;;;8.30;99.90;;;;;;4997972;28;20070;-90
2023/04/12 05:37:09;;;;;;;10.55;4.28;;;8.30;99.90;;;;;;4991664;28;20030;-90
2023/04/12 05:39:35;;;;;;;9.68;4.10;;;8.30;99.90;;;;;;4991503;28;20081;-95
2023/04/12 05:42:01;;;;;;;9.25;3.88;;;8.30;99.90;;;;;;4992064;28;20056;-89
2023/04/12 05:44:26;;;;;;;9.50;3.53;;;8.30;99.90;;;;;;4990567;28;20034;-89
2023/04/12 05:46:52;;;;;;;9.57;3.83;;;8.30;99.90;;;;;;4990351;28;20070;-91
2023/04/12 05:49:18;;;;;;;9.90;4.00;;;8.30;99.90;;;;;;4990000;28;20034;-94
2023/04/12 05:51:43;;;;;;;8.40;3.72;;;8.30;99.90;;;;;;4990261;28;20463;-91
2023/04/12 05:54:09;;;;;;;9.50;3.97;;;8.30;99.90;;;;;;4979412;28;20085;-90
2023/04/12 05:56:35;;;;;;;9.27;4.20;;;8.30;99.90;;;;;;4990578;28;20277;-93
2023/04/12 05:59:01;;;;;;;8.82;4.00;;;8.30;99.90;;;;;;4987764;28;20050;-92
2023/04/12 06:01:33;;;;;;;10.10;3.90;;;8.30;99.90;;;;;;4977999;28;20430;-94
2023/04/12 06:04:04;;;;;;;8.85;3.88;;;8.30;99.90;;;;;;4979368;28;20483;-90
2023/04/12 06:06:30;;;;;;;9.23;4.25;;;8.30;99.90;;;;;;4992384;28;20426;-90
2023/04/12 06:08:59;;;;;;;9.82;4.00;;;8.30;99.90;;;;;;4992149;28;20058;-93
2023/04/12 06:11:25;;;;;;;7.95;3.45;;;8.30;99.90;;;;;;4989141;28;20158;-93
2023/04/12 06:13:51;;;;;;;9.88;4.32;;;8.30;99.90;;;;;;4989917;28;20034;-90
2023/04/12 06:16:16;;;;;;;9.18;3.90;;;8.30;99.90;;;;;;4976580;28;20050;-93
2023/04/12 06:18:42;;;;;;;10.23;4.25;;;8.30;99.90;;;;;;4988815;28;20039;-93
2023/04/12 06:21:08;;;;;;;8.65;4.00;;;8.30;99.90;;;;;;4989442;28;20046;-92
2023/04/12 06:23:33;;;;;;;9.85;3.60;;;8.30;99.90;;;;;;4989634;28;20359;-92
2023/04/12 06:25:59;;;;;;;9.73;3.80;;;8.30;99.90;;;;;;4989671;28;20046;-89
2023/04/12 06:28:24;;;;;;;9.10;4.18;;;8.30;99.90;;;;;;4975560;28;20501;-89
2023/04/12 06:30:50;;;;;;;10.15;4.22;;;8.30;99.90;;;;;;4990252;28;20562;-87
2023/04/12 06:33:16;;;;;;;9.80;4.28;;;8.30;99.90;;;;;;4991264;28;20041;-87
2023/04/12 06:35:41;;;;;;;9.48;3.90;;;8.30;99.90;;;;;;4989327;28;20038;-89
2023/04/12 06:38:07;;;;;;;10.73;3.97;;;8.30;99.90;;;;;;4988760;28;20054;-89
2023/04/12 06:40:33;;;;;;;8.07;3.70;;;8.30;99.90;;;;;;4989078;28;20046;-89
2023/04/12 06:42:58;;;;;;;8.65;3.83;;;8.30;99.90;;;;;;4988525;28;20038;-89
2023/04/12 06:45:24;;;;;;;9.32;4.00;;;8.30;99.90;;;;;;4990569;28;20040;-94
2023/04/12 06:47:49;;;;;;;10.57;4.18;;;8.30;99.90;;;;;;4975795;28;20104;-89
2023/04/12 06:50:17;;;;;;;9.48;4.35;;;8.30;99.90;;;;;;4991591;28;20546;-91
2023/04/12 06:52:42;;;;;;;9.95;4.25;;;8.30;99.90;;;;;;4972696;28;20035;-86
2023/04/12 06:55:08;;;;;;;9.68;4.13;;;8.30;99.90;;;;;;4988012;28;20085;-89
2023/04/12 06:57:34;;;;;;;9.38;4.32;;;8.30;99.90;;;;;;4990762;28;20819;-88
2023/04/12 07:00:00;;;;;;;9.70;4.07;;;8.30;99.90;;;;;;4974521;28;20030;-89
2023/04/12 07:02:26;;;;;;;9.45;4.30;;;8.30;99.90;;;;;;4966949;28;20146;-89
2023/04/12 07:04:55;;;;;;;7.95;3.95;;;8.30;99.90;;;;;;4984387;28;20047;-87
2023/04/12 07:07:21;;;;;;;8.82;3.80;;;8.30;99.90;;;;;;5013358;28;20104;-88
2023/04/12 07:09:47;;;;;;;8.48;4.00;;;8.30;99.90;;;;;;5013719;28;20030;-88
2023/04/12 07:12:13;;;;;;;9.63;4.10;;;8.30;99.90;;;;;;5008559;28;20409;-87
2023/04/12 07:14:38;;;;;;;10.10;4.13;;;8.30;99.90;;;;;;5006680;28;20084;-88
2023/04/12 07:17:05;;;;;;;9.75;4.40;;;8.30;99.90;;;;;;5009165;28;20046;-88
2023/04/12 07:19:30;;;;;;;8.15;4.45;;;8.30;99.90;;;;;;5008017;28;20124;-87
2023/04/12 07:21:56;;;;;;;7.88;4.35;;;8.30;99.90;;;;;;5008236;28;20532;-86
2023/04/12 07:24:22;;;;;;;8.88;4.30;;;8.40;99.90;;;;;;5008707;28;20046;-88
2023/04/12 07:26:48;;;;;;;9.35;4.30;;;8.30;99.90;;;;;;5010761;28;20397;-88
2023/04/12 07:29:13;;;;;;;8.77;4.57;;;8.30;99.90;;;;;;5009109;28;20038;-90
2023/04/12 07:31:39;;;;;;;8.32;4.57;;;8.30;99.90;;;;;;5008286;28;20066;-89
2023/04/12 07:34:05;;;;;;;7.82;4.40;;;8.30;99.90;;;;;;5006724;28;20513;-87
2023/04/12 07:36:31;;;;;;;7.38;4.68;;;8.30;99.90;;;;;;5022384;28;20041;-87
2023/04/12 07:38:56;;;;;;;8.52;4.60;;;8.30;99.90;;;;;;5005947;28;20045;-87
2023/04/12 07:41:22;;;;;;;8.65;4.88;;;8.30;99.90;;;;;;5008493;28;20044;-88
2023/04/12 07:43:47;;;;;;;9.70;4.55;;;8.30;99.90;;;;;;5007854;28;20037;-88
2023/04/12 07:46:13;;;;;;;9.30;4.82;;;8.30;99.90;;;;;;5007340;28;20041;-91
2023/04/12 07:48:39;;;;;;;7.97;4.90;;;8.30;99.90;;;;;;5006391;28;20054;-90
2023/04/12 07:51:05;;;;;;;9.02;5.05;;;8.30;99.90;;;;;;5007654;28;20494;-87
2023/04/12 07:53:30;;;;;;;9.75;4.93;;;8.30;99.90;;;;;;5007054;28;20033;-86
2023/04/12 07:55:56;;;;;;;10.40;5.10;;;8.40;99.90;;;;;;5005570;28;20104;-89
2023/04/12 07:58:23;;;;;;;8.90;5.45;;;8.40;99.90;;;;;;5006505;28;20398;-90
2023/04/12 08:00:49;;;;;;;8.90;5.32;;;8.30;99.90;;;;;;5005661;28;20559;-88
2023/04/12 08:03:17;;;;;;;10.65;5.95;;;8.40;99.90;;;;;;5010173;28;20041;-88
2023/04/12 08:05:44;;;;;;;11.50;5.47;;;8.40;99.90;;;;;;5005223;28;20188;-85
2023/04/12 08:08:09;;;;;;;9.32;5.68;;;8.40;99.90;;;;;;4985702;28;20126;-88
2023/04/12 08:10:39;;;;;;;9.85;5.82;;;8.40;99.90;;;;;;4970327;28;20062;-92
2023/04/12 08:13:05;;;;;;;8.93;5.68;;;8.50;99.90;;;;;;4971699;28;20049;-87
2023/04/12 08:15:31;;;;;;;8.52;5.70;;;8.50;99.90;;;;;;4970367;28;20390;-90
2023/04/12 08:17:56;;;;;;;9.90;5.75;;;8.60;99.90;;;;;;4970141;28;20046;-91
2023/04/12 08:20:22;;;;;;;7.78;5.85;;;8.60;99.90;;;;;;4987541;28;20061;-90
2023/04/12 08:22:48;;;;;;;9.20;6.00;;;8.60;99.90;;;;;;4970432;28;20050;-94
2023/04/12 08:25:14;;;;;;;9.02;6.25;;;8.70;99.90;;;;;;4992113;28;20039;-91
2023/04/12 08:27:44;;;;;;;9.50;6.30;;;8.70;99.90;;;;;;4971037;28;20474;-90
2023/04/12 08:30:11;;;;;;;8.05;3.30;;;8.70;99.90;;;;;;4990548;28;20040;-91
2023/04/12 08:32:37;;;;;;;9.00;5.95;;;8.70;99.90;;;;;;4987766;28;20093;-90
2023/04/12 08:35:04;;;;;;;10.65;6.20;;;8.70;99.90;;;;;;4987945;28;20420;-91
2023/04/12 08:37:30;;;;;;;9.25;6.57;;;8.70;99.90;;;;;;4978475;28;20554;-92
2023/04/12 08:39:57;;;;;;;9.90;6.80;;;8.80;99.90;;;;;;4984216;28;20049;-91
2023/04/12 08:42:23;;;;;;;8.32;6.53;;;8.80;99.90;;;;;;4991064;28;20042;-92
2023/04/12 08:44:51;;;;;;;10.10;6.68;;;8.80;99.90;;;;;;4970530;28;20719;-92
2023/04/12 08:47:16;;;;;;;8.88;7.13;;;8.80;99.90;;;;;;4964461;28;20049;-91
2023/04/12 08:49:42;;;;;;;8.13;6.93;;;8.80;99.90;;;;;;4976642;28;20050;-91
2023/04/12 08:52:09;;;;;;;10.45;7.80;;;8.90;99.90;;;;;;4973930;28;20042;-91
2023/04/12 08:54:36;;;;;;;10.82;8.45;;;8.90;99.90;;;;;;4983684;28;20501;-91
2023/04/12 08:57:06;;;;;;;10.00;8.90;;;8.90;99.90;;;;;;4990208;28;20089;-91
2023/04/12 08:59:37;;;;;;;10.60;9.00;;;9.00;99.90;;;;;;4972100;28;20038;-90
2023/04/12 09:02:02;;;;;;;10.20;8.77;;;9.00;99.90;;;;;;4974839;28;20057;-93
2023/04/12 09:04:31;;;;;;;9.65;8.63;;;9.00;99.90;;;;;;4985190;28;20030;-91
2023/04/12 09:06:56;;;;;;;10.90;9.20;;;9.00;99.90;;;;;;4988859;28;20636;-91
2023/04/12 09:09:45;;;;;;;10.98;9.88;;;9.00;99.90;;;;;;4995985;28;20045;-92
2023/04/12 09:12:11;;;;;;;11.88;10.63;;;9.00;99.90;;;;;;4985358;28;20042;-91
2023/04/12 09:14:38;;;;;;;11.30;10.20;;;8.90;99.90;;;;;;4991786;28;20070;-90
2023/04/12 09:17:04;;;;;;;12.55;11.25;;;8.90;99.90;;;;;;4987404;28;20080;-90
2023/04/12 09:19:34;;;;;;;13.15;11.85;;;8.90;99.90;;;;;;4985881;28;20096;-89
2023/04/12 09:22:01;;;;;;;13.30;12.00;;;8.90;99.90;;;;;;4987214;28;20042;-91
2023/04/12 09:24:27;;;;;;;13.73;12.32;;;9.00;99.90;;;;;;4986853;28;20121;-94
2023/04/12 09:27:04;;;;;;;12.88;11.38;;;9.10;99.90;;;;;;4987333;28;20100;-92
2023/04/12 09:29:31;;;;;;;12.70;11.50;;;9.10;99.90;;;;;;4978217;28;20057;-89
2023/04/12 09:32:08;;;;;;;12.15;10.85;;;9.30;99.90;;;;;;4984089;28;20830;-91
2023/04/12 09:34:34;;;;;;;12.32;11.13;;;9.40;99.90;;;;;;4988627;28;20045;-86
2023/04/12 09:37:18;;;;;;;12.00;10.80;;;9.50;99.90;;;;;;4986868;28;20441;-88
2023/04/12 09:39:43;;;;;;;13.38;12.07;;;9.60;99.90;;;;;;4985951;28;20042;-87
2023/04/12 09:42:11;;;;;;;13.02;11.52;;;9.60;99.90;;;;;;4986541;28;20030;-88
2023/04/12 09:44:37;;;;;;;11.85;10.65;;;9.70;99.90;;;;;;4985758;28;20094;-87
2023/04/12 09:47:04;;;;;;;12.23;11.02;;;9.70;99.90;;;;;;4987472;28;20046;-88
2023/04/12 09:49:37;;;;;;;12.23;11.02;;;9.80;99.90;;;;;;4985157;28;20039;-87
2023/04/12 09:52:05;;;;;;;11.50;10.32;;;9.90;99.90;;;;;;4987562;28;20050;-92
2023/04/12 09:54:36;;;;;;;10.80;9.70;;;10.10;99.90;;;;;;4985743;28;20686;-88
2023/04/12 09:57:03;;;;;;;;;;;10.30;99.90;;;;;;4985266;28;20129;-90
2023/04/12 09:59:31;;;;;;;10.40;9.30;;;10.30;99.90;;;;;;4984230;28;19917;-89
2023/04/12 10:01:57;;;;;;;9.50;8.40;;;10.40;99.90;;;;;;4986830;28;20836;-88
2023/04/12 10:04:25;;;;;;;9.45;8.38;;;10.50;99.90;;;;;;4985647;28;20097;-89
2023/04/12 10:06:51;;;;;;;10.25;8.23;;;10.50;99.90;;;;;;4980984;28;20089;-91
2023/04/12 10:09:16;;;;;;;10.55;8.82;;;10.40;99.90;;;;;;4987011;28;20121;-90
2023/04/12 10:11:44;;;;;;;9.35;7.60;;;10.50;99.90;;;;;;4986189;28;20149;-88
2023/04/12 10:14:10;;;;;;;9.13;7.28;;;10.50;99.90;;;;;;4985970;28;20286;-88
2023/04/12 10:16:40;;;;;;;10.35;7.53;;;10.60;99.90;;;;;;4985763;28;20094;-84
2023/04/12 10:19:08;;;;;;;10.07;8.18;;;10.70;99.90;;;;;;4988364;28;20034;-93
2023/04/12 10:21:34;;;;;;;9.90;7.65;;;10.80;99.90;;;;;;4990826;28;20065;-85
2023/04/12 10:23:59;;;;;;;9.40;7.75;;;10.80;99.90;;;;;;4979162;28;20065;-89
2023/04/12 10:26:25;;;;;;;10.68;7.70;;;11.10;99.90;;;;;;4990700;28;20046;-88
2023/04/12 10:29:24;;;;;;;10.18;7.47;;;11.30;99.90;;;;;;4988341;28;20123;-89
2023/04/12 10:31:51;;;;;;;10.88;7.30;;;11.50;99.90;;;;;;4989627;28;20038;-88
2023/04/12 10:34:16;;;;;;;9.60;6.50;;;11.60;99.90;;;;;;4974931;28;20042;-91
2023/04/12 10:37:03;;;;;;;10.00;6.55;;;11.70;99.90;;;;;;4992029;28;20521;-91
2023/04/12 10:39:40;;;;;;;11.15;6.55;;;11.60;99.90;;;;;;4987900;28;20414;-86
2023/04/12 10:42:15;;;;;;;10.25;6.55;;;11.60;99.90;;;;;;4990251;28;20043;-87
2023/04/12 10:44:41;;;;;;;10.63;6.63;;;11.70;99.90;;;;;;4988837;28;20089;-85
2023/04/12 10:47:08;;;;;;;11.25;6.30;;;11.80;99.90;;;;;;4989412;28;20434;-86
2023/04/12 10:49:34;;;;;;;9.48;6.28;;;11.90;99.90;;;;;;4986237;28;20082;-86
2023/04/12 10:52:00;;;;;;;9.90;5.80;;;11.90;99.90;;;;;;4989508;28;20496;-88
2023/04/12 10:54:26;;;;;;;11.65;6.20;;;12.00;99.90;;;;;;4989276;28;20121;-87
2023/04/12 10:56:51;;;;;;;11.10;5.88;;;12.00;99.90;;;;;;4982351;28;20046;-89
2023/04/12 10:59:17;;;;;;;11.15;6.20;;;12.10;99.90;;;;;;4988357;28;20074;-87
2023/04/12 11:02:12;;;;;;;14.02;5.60;;;12.10;99.90;;;;;;4988618;28;20085;-89
2023/04/12 11:04:38;;;;;;;11.25;5.68;;;12.10;99.90;;;;;;4973578;28;20046;-85
2023/04/12 11:07:08;;;;;;;12.18;6.07;;;11.90;99.90;;;;;;4986700;28;20128;-86
2023/04/12 11:09:41;;;;;;;12.82;5.05;;;11.90;99.90;;;;;;4988084;28;20046;-94
2023/04/12 11:12:06;;;;;;;9.52;5.10;;;12.00;99.90;;;;;;4989867;28;20368;-87
2023/04/12 11:14:41;;;;;;;11.68;4.95;;;12.10;99.90;;;;;;4987891;28;20050;-88
2023/04/12 11:17:07;;;;;;;12.57;5.32;;;12.20;99.90;;;;;;4988285;28;20039;-86
2023/04/12 11:19:33;;;;;;;10.15;4.50;;;12.30;99.90;;;;;;4979649;28;20035;-86
2023/04/12 11:22:07;;;;;;;12.10;5.22;;;12.30;99.90;;;;;;4984759;28;20066;-88
2023/04/12 11:24:36;;;;;;;13.63;5.53;;;12.40;99.90;;;;;;4985076;28;20038;-86
2023/04/12 11:27:03;;;;;;;11.30;4.50;;;12.60;99.90;;;;;;4991877;28;20459;-86
2023/04/12 11:29:31;;;;;;;12.20;5.20;;;12.60;99.90;;;;;;4992770;28;20386;-85
2023/04/12 11:31:57;;;;;;;10.40;4.40;;;12.70;99.90;;;;;;4987199;28;20391;-86
2023/04/12 11:34:23;;;;;;;12.13;4.40;;;12.70;99.90;;;;;;4970860;28;20046;-85
2023/04/12 11:36:52;;;;;;;12.88;4.35;;;12.80;99.90;;;;;;4986250;28;20041;-86
2023/04/12 11:39:18;;;;;;;10.93;4.30;;;12.90;99.90;;;;;;4986277;28;20042;-89
2023/04/12 11:41:45;;;;;;;11.60;3.95;;;13.00;99.90;;;;;;4967772;28;20517;-88
2023/04/12 11:44:12;;;;;;;11.60;4.50;;;13.10;99.90;;;;;;4986766;28;20038;-89
2023/04/12 11:46:38;;;;;;;13.10;4.18;;;13.20;99.90;;;;;;4984286;28;20101;-88
2023/04/12 11:49:03;;;;;;;12.18;4.30;;;13.20;99.90;;;;;;4990976;28;20034;-84
2023/04/12 11:51:31;;;;;;;10.82;3.10;;;13.20;99.90;;;;;;4971642;28;20446;-88
2023/04/12 11:53:57;;;;;;;12.02;3.90;;;13.00;99.90;;;;;;4966327;28;20046;-87
2023/04/12 11:56:27;;;;;;;14.60;4.10;;;13.10;99.90;;;;;;4989469;28;20038;-88
2023/04/12 11:58:52;;;;;;;15.07;3.72;;;13.20;99.90;;;;;;4972980;28;20128;-86
2023/04/12 12:01:20;;;;;;;13.70;3.70;;;13.20;99.90;;;;;;4971578;28;20085;-88
2023/04/12 12:03:47;;;;;;;11.10;3.38;;;13.30;99.90;;;;;;4987592;28;20426;-85
2023/04/12 12:06:14;;;;;;;11.15;3.53;;;13.30;99.90;;;;;;4982836;28;20051;-87
2023/04/12 12:08:40;;;;;;;13.48;3.45;;;13.30;99.90;;;;;;4986885;28;20038;-88
2023/04/12 12:11:06;;;;;;;13.40;3.72;;;13.30;99.90;;;;;;4987383;28;20053;-87
2023/04/12 12:13:49;;;;;;;12.38;3.33;;;13.40;99.90;;;;;;4986168;28;20121;-86
2023/04/12 12:16:16;;;;;;;12.32;3.22;;;13.40;99.90;;;;;;5000296;28;20375;-88
2023/04/12 12:18:42;;;;;;;11.23;3.00;;;13.50;99.90;;;;;;4987191;28;20042;-86
2023/04/12 12:21:09;;;;;;;15.25;3.90;;;13.60;99.90;;;;;;4969662;28;20046;-86
2023/04/12 12:23:35;;;;;;;11.95;3.20;;;13.60;99.90;;;;;;4986623;28;20070;-86
2023/04/12 12:26:08;;;;;;;9.90;2.83;;;13.70;99.90;;;;;;4986549;28;20065;-85
2023/04/12 12:28:37;;;;;;;12.05;3.08;;;13.70;99.90;;;;;;4985946;28;20061;-85
2023/04/12 12:31:09;;;;;;;9.27;2.60;;;13.70;99.90;;;;;;4986843;28;20064;-84
2023/04/12 12:33:38;;;;;;;9.65;2.80;;;13.80;99.90;;;;;;4970327;28;20126;-85
2023/04/12 12:36:05;;;;;;;9.00;2.88;;;13.90;99.90;;;;;;4969670;28;20096;-87
2023/04/12 12:38:38;;;;;;;11.55;3.10;;;13.90;99.90;;;;;;4982562;28;20097;-85
2023/04/12 12:41:22;;;;;;;11.70;2.85;;;13.90;99.90;;;;;;4987489;28;20046;-89
2023/04/12 12:43:49;;;;;;;11.65;3.03;;;14.00;99.90;;;;;;4982576;28;20030;-85
2023/04/12 12:46:19;;;;;;;14.95;3.33;;;13.90;99.90;;;;;;4984819;28;20053;-86
2023/04/12 12:48:46;;;;;;;13.10;3.70;;;13.90;99.90;;;;;;4986441;28;20491;-82
2023/04/12 12:51:19;;;;;;;13.20;3.30;;;13.80;99.90;;;;;;4970356;28;20050;-85